Terminal Aerodrome Forecast
Issued by NWS

Home | Current Version | Previous Version | Text Only | Print | Product List | Glossary On
Versions: 1 2 3 4 5 6 7 8 9 10 11 12 13 14 15
457
FTUS45 KABQ 241740
TAFROW
TAF
KROW 241740Z 2418/2518 12009KT P6SM BKN035
     FM250400 VRB15G25KT P6SM VCTS SCT020 BKN050CB
     FM250700 14008KT P6SM OVC025
     FM251700 15011KT P6SM SCT025=

USA.gov is the U.S. government's official web portal to all federal, state and local government web resources and services.